createdAt,value
2023-05-14T00:00:48.412Z,51.10
2023-05-14T00:03:15.321Z,51.22
2023-05-14T00:05:42.332Z,51.02
2023-05-14T00:08:09.300Z,51.37
2023-05-14T00:10:36.348Z,51.78
2023-05-14T00:13:04.473Z,51.32
2023-05-14T00:15:32.958Z,51.39
2023-05-14T00:18:02.541Z,51.46
2023-05-14T00:20:29.301Z,50.91
2023-05-14T00:22:56.527Z,51.24
2023-05-14T00:25:23.628Z,51.48
2023-05-14T00:27:50.667Z,51.46
2023-05-14T00:30:17.642Z,51.50
2023-05-14T00:32:44.653Z,52.13
2023-05-14T00:35:12.990Z,51.56
2023-05-14T00:37:39.682Z,51.80
2023-05-14T00:40:08.714Z,52.01
2023-05-14T00:42:35.757Z,51.67
2023-05-14T00:45:02.853Z,51.43
2023-05-14T00:47:29.919Z,51.84
2023-05-14T00:49:56.939Z,51.81
2023-05-14T00:52:25.478Z,51.92
2023-05-14T00:54:52.542Z,51.98
2023-05-14T00:57:19.523Z,51.78
2023-05-14T00:59:46.498Z,52.06
2023-05-14T01:02:13.442Z,51.87
2023-05-14T01:04:41.224Z,52.07
2023-05-14T01:07:13.982Z,52.24
2023-05-14T01:09:44.672Z,52.91
2023-05-14T01:12:18.447Z,52.43
2023-05-14T01:14:51.133Z,52.93
2023-05-14T01:17:22.910Z,52.64
2023-05-14T01:19:52.033Z,52.89
2023-05-14T01:22:20.456Z,52.98
2023-05-14T01:24:47.658Z,52.50
2023-05-14T01:27:18.666Z,53.24
2023-05-14T01:29:49.493Z,52.54
2023-05-14T01:32:17.818Z,52.86
2023-05-14T01:34:44.597Z,52.69
2023-05-14T01:37:12.748Z,52.65
2023-05-14T01:39:41.621Z,53.26
2023-05-14T01:42:09.322Z,53.09
2023-05-14T01:44:36.744Z,52.57
2023-05-14T01:47:03.748Z,52.40
2023-05-14T01:49:30.738Z,53.42
2023-05-14T01:51:57.698Z,53.57
2023-05-14T01:54:24.654Z,55.15
2023-05-14T01:56:53.009Z,55.35
2023-05-14T01:59:19.990Z,55.59
2023-05-14T02:01:47.237Z,55.35
2023-05-14T02:04:14.386Z,55.71
2023-05-14T02:06:41.913Z,57.52
2023-05-14T02:09:08.868Z,58.05
2023-05-14T02:11:35.778Z,58.78
2023-05-14T02:14:04.181Z,59.25
2023-05-14T02:16:31.246Z,57.68
2023-05-14T02:18:58.233Z,58.08
2023-05-14T02:21:25.358Z,58.32
2023-05-14T02:23:52.252Z,58.43
2023-05-14T02:26:19.163Z,58.74
2023-05-14T02:28:46.114Z,59.61
2023-05-14T02:31:14.873Z,61.03
2023-05-14T02:33:42.110Z,61.25
2023-05-14T02:36:09.280Z,60.56
2023-05-14T02:38:36.269Z,61.21
2023-05-14T02:41:03.153Z,61.16
2023-05-14T02:43:30.117Z,61.33
2023-05-14T02:45:57.013Z,61.25
2023-05-14T02:48:28.333Z,60.31
2023-05-14T02:50:55.484Z,60.28
2023-05-14T02:53:22.576Z,60.69
2023-05-14T02:55:49.517Z,61.92
2023-05-14T02:58:16.518Z,61.02
2023-05-14T03:00:43.436Z,61.19
2023-05-14T03:03:10.889Z,60.79
2023-05-14T03:05:39.670Z,60.77
2023-05-14T03:08:06.843Z,60.52
2023-05-14T03:10:33.816Z,60.02
2023-05-14T03:13:00.783Z,59.35
2023-05-14T03:15:27.712Z,60.08
2023-05-14T03:17:54.770Z,61.00
2023-05-14T03:20:23.061Z,61.58
2023-05-14T03:22:51.670Z,61.08
2023-05-14T03:25:18.702Z,62.75
2023-05-14T03:27:46.356Z,64.15
2023-05-14T03:30:13.835Z,65.64
2023-05-14T03:32:41.379Z,64.79
2023-05-14T03:35:08.955Z,65.78
2023-05-14T03:37:35.782Z,65.26
2023-05-14T03:40:05.206Z,64.92
2023-05-14T03:42:32.090Z,64.76
2023-05-14T03:44:59.020Z,64.93
2023-05-14T03:47:25.951Z,65.88
2023-05-14T03:49:53.690Z,64.57
2023-05-14T03:52:20.696Z,65.67
2023-05-14T03:54:47.779Z,67.30
2023-05-14T03:57:17.025Z,67.10
2023-05-14T03:59:43.911Z,67.20
2023-05-14T04:02:10.967Z,67.29
2023-05-14T04:04:38.058Z,67.64
2023-05-14T04:07:05.049Z,65.96
2023-05-14T04:09:32.014Z,65.87
2023-05-14T04:11:58.923Z,65.94
2023-05-14T04:14:27.456Z,66.80
2023-05-14T04:16:54.310Z,66.57
2023-05-14T04:19:21.634Z,66.10
2023-05-14T04:21:48.583Z,66.71
2023-05-14T04:24:15.670Z,65.88
2023-05-14T04:26:42.594Z,66.80
2023-05-14T04:29:09.529Z,66.45
2023-05-14T04:31:37.875Z,66.79
2023-05-14T04:34:04.618Z,67.20
2023-05-14T04:36:31.763Z,66.85
2023-05-14T04:38:58.623Z,67.33
2023-05-14T04:41:25.502Z,67.94
2023-05-14T04:43:56.047Z,68.12
2023-05-14T04:46:23.162Z,68.64
2023-05-14T04:48:51.888Z,69.29
2023-05-14T04:51:18.822Z,68.67
2023-05-14T04:53:45.746Z,69.39
2023-05-14T04:56:12.668Z,71.22
2023-05-14T04:58:39.759Z,71.03
2023-05-14T05:01:07.403Z,70.77
2023-05-14T05:03:34.425Z,70.01
2023-05-14T05:06:02.739Z,70.52
2023-05-14T05:08:29.690Z,71.43
2023-05-14T05:10:56.533Z,71.99
2023-05-14T05:13:26.508Z,72.26
2023-05-14T05:15:53.481Z,72.35
2023-05-14T05:18:20.415Z,72.81
2023-05-14T05:20:47.478Z,73.87
2023-05-14T05:23:15.814Z,74.88
2023-05-14T05:25:42.725Z,76.27
2023-05-14T05:28:09.742Z,76.75
2023-05-14T05:30:36.786Z,76.24
2023-05-14T05:33:04.060Z,77.71
2023-05-14T05:35:31.040Z,78.07
2023-05-14T05:38:00.514Z,77.48
2023-05-14T05:40:29.809Z,76.91
2023-05-14T05:42:56.546Z,77.31
2023-05-14T05:45:23.693Z,75.37
2023-05-14T05:47:50.815Z,75.43
2023-05-14T05:50:19.769Z,75.96
2023-05-14T05:52:47.083Z,75.71
2023-05-14T05:55:13.926Z,75.91
2023-05-14T05:57:42.285Z,76.99
2023-05-14T06:00:13.385Z,76.65
2023-05-14T06:02:40.935Z,76.96
2023-05-14T06:05:09.487Z,77.17
2023-05-14T06:07:36.457Z,76.85
2023-05-14T06:10:03.862Z,77.16
2023-05-14T06:12:30.790Z,77.80
2023-05-14T06:14:59.069Z,77.49
2023-05-14T06:17:26.086Z,77.49
2023-05-14T06:19:53.211Z,77.09
2023-05-14T06:22:20.760Z,76.56
2023-05-14T06:24:48.370Z,77.07
2023-05-14T06:27:15.386Z,76.59
2023-05-14T06:29:42.413Z,77.27
2023-05-14T06:32:11.000Z,76.98
2023-05-14T06:34:37.940Z,76.81
2023-05-14T06:37:05.615Z,76.84
2023-05-14T06:39:32.540Z,76.49
2023-05-14T06:41:59.528Z,77.08
2023-05-14T06:44:26.438Z,77.19
2023-05-14T06:46:53.353Z,76.57
2023-05-14T06:49:21.661Z,76.77
2023-05-14T06:51:48.740Z,77.62
2023-05-14T06:54:15.696Z,77.84
2023-05-14T06:56:42.803Z,77.80
2023-05-14T06:59:28.067Z,78.04
2023-05-14T07:01:55.658Z,79.07
2023-05-14T07:04:24.057Z,79.41
2023-05-14T07:06:51.068Z,78.99
2023-05-14T07:09:18.010Z,79.14
2023-05-14T07:11:44.946Z,79.47
2023-05-14T07:14:11.962Z,79.30
2023-05-14T07:16:39.011Z,79.36
2023-05-14T07:19:05.990Z,78.12
2023-05-14T07:21:34.912Z,77.91
2023-05-14T07:24:02.245Z,77.93
2023-05-14T07:26:29.314Z,78.56
2023-05-14T07:28:56.260Z,78.84
2023-05-14T07:31:23.456Z,78.32
2023-05-14T07:33:50.492Z,78.33
2023-05-14T07:36:17.487Z,77.67
2023-05-14T07:38:45.781Z,78.39
2023-05-14T07:41:12.718Z,78.59
2023-05-14T07:43:40.605Z,79.15
2023-05-14T07:46:07.562Z,78.58
2023-05-14T07:48:34.658Z,79.42
2023-05-14T07:51:02.028Z,78.75
2023-05-14T07:53:29.524Z,79.38
2023-05-14T07:55:58.235Z,79.52
2023-05-14T07:58:26.743Z,79.96
2023-05-14T08:00:53.884Z,80.74
2023-05-14T08:03:20.916Z,80.21
2023-05-14T08:05:47.832Z,79.83
2023-05-14T08:08:14.840Z,81.15
2023-05-14T08:10:41.810Z,80.91
2023-05-14T08:13:10.118Z,80.82
2023-05-14T08:15:37.068Z,79.98
2023-05-14T08:18:04.144Z,81.10
2023-05-14T08:20:31.247Z,81.59
2023-05-14T08:22:58.271Z,80.31
2023-05-14T08:25:25.326Z,80.47
2023-05-14T08:27:53.738Z,80.97
2023-05-14T08:30:23.086Z,80.86
2023-05-14T08:32:50.506Z,80.73
2023-05-14T08:35:17.933Z,81.45
2023-05-14T08:37:45.008Z,80.27
2023-05-14T08:40:12.582Z,79.64
2023-05-14T08:42:44.914Z,79.79
2023-05-14T08:45:16.154Z,80.20
2023-05-14T08:47:45.605Z,79.31
2023-05-14T08:50:12.594Z,79.18
2023-05-14T08:52:39.810Z,79.88
2023-05-14T08:55:07.961Z,79.32
2023-05-14T08:57:35.579Z,79.44
2023-05-14T09:00:08.337Z,79.01
2023-05-14T09:02:36.028Z,77.39
2023-05-14T09:05:04.822Z,77.93
2023-05-14T09:07:32.041Z,78.66
2023-05-14T09:09:59.263Z,79.13
2023-05-14T09:12:26.267Z,78.77
2023-05-14T09:14:53.252Z,77.75
2023-05-14T09:17:20.639Z,80.16
2023-05-14T09:19:49.301Z,78.27
2023-05-14T09:22:18.311Z,79.07
2023-05-14T09:24:45.981Z,78.41
2023-05-14T09:27:19.237Z,79.51
2023-05-14T09:29:46.176Z,79.19
2023-05-14T09:32:13.081Z,78.60
2023-05-14T09:34:40.646Z,79.34
2023-05-14T09:37:08.872Z,78.53
2023-05-14T09:39:38.003Z,78.44
2023-05-14T09:42:05.646Z,78.92
2023-05-14T09:44:32.649Z,79.80
2023-05-14T09:46:59.722Z,78.46
2023-05-14T09:49:26.732Z,79.97
2023-05-14T09:51:53.707Z,77.66
2023-05-14T09:54:20.623Z,79.00
2023-05-14T09:56:48.869Z,78.90
2023-05-14T09:59:16.055Z,79.87
2023-05-14T10:01:44.172Z,79.13
2023-05-14T10:04:11.548Z,78.73
2023-05-14T10:06:39.804Z,79.00
2023-05-14T10:09:12.173Z,78.86
2023-05-14T10:11:43.140Z,78.48
2023-05-14T10:14:18.660Z,78.59
2023-05-14T10:16:49.518Z,78.17
2023-05-14T10:19:17.936Z,79.86
2023-05-14T10:21:45.978Z,79.44
2023-05-14T10:24:13.330Z,78.94
2023-05-14T10:26:42.008Z,78.88
2023-05-14T10:29:11.924Z,78.96
2023-05-14T10:31:50.118Z,78.04
2023-05-14T10:34:33.752Z,78.45
2023-05-14T10:37:02.110Z,79.32
2023-05-14T10:39:45.843Z,79.38
2023-05-14T10:42:14.080Z,78.42
2023-05-14T10:44:51.758Z,79.25
2023-05-14T10:47:18.779Z,78.91
2023-05-14T10:49:45.920Z,79.12
2023-05-14T10:52:12.914Z,79.62
2023-05-14T10:54:39.956Z,79.14
2023-05-14T10:57:11.314Z,79.21
2023-05-14T10:59:43.574Z,79.52
2023-05-14T11:02:21.097Z,79.63
2023-05-14T11:04:59.466Z,78.50
2023-05-14T11:07:29.710Z,78.39
2023-05-14T11:10:00.732Z,77.12
2023-05-14T11:12:28.229Z,77.05
2023-05-14T11:14:57.295Z,77.25
2023-05-14T11:17:24.982Z,77.90
2023-05-14T11:19:52.215Z,76.64
2023-05-14T11:22:19.175Z,75.48
2023-05-14T11:24:46.030Z,78.58
2023-05-14T11:27:13.162Z,77.58
2023-05-14T11:29:44.043Z,75.98
2023-05-14T11:32:13.036Z,75.79
2023-05-14T11:34:40.048Z,78.75
2023-05-14T11:37:07.547Z,76.22
2023-05-14T11:39:36.075Z,77.46
2023-05-14T11:42:04.202Z,77.26
2023-05-14T11:44:31.300Z,76.88
2023-05-14T11:46:58.707Z,76.29
2023-05-14T11:49:29.007Z,77.61
2023-05-14T11:51:59.175Z,76.55
2023-05-14T11:54:27.237Z,76.91
2023-05-14T11:56:55.284Z,75.93
2023-05-14T11:59:23.839Z,74.43
2023-05-14T12:01:52.393Z,75.13
2023-05-14T12:04:22.587Z,75.22
2023-05-14T12:06:51.623Z,76.10
2023-05-14T12:09:19.165Z,75.87
2023-05-14T12:11:50.098Z,75.63
2023-05-14T12:14:18.066Z,75.14
2023-05-14T12:16:46.296Z,74.31
2023-05-14T12:19:15.357Z,74.70
2023-05-14T12:21:43.751Z,75.17
2023-05-14T12:24:12.778Z,73.30
2023-05-14T12:26:40.287Z,74.12
2023-05-14T12:29:07.231Z,74.54
2023-05-14T12:31:35.431Z,72.87
2023-05-14T12:34:03.193Z,73.83
2023-05-14T12:36:30.934Z,73.45
2023-05-14T12:39:00.603Z,74.20
2023-05-14T12:41:28.972Z,75.46
2023-05-14T12:43:55.878Z,74.82
2023-05-14T12:46:23.130Z,74.61
2023-05-14T12:48:51.177Z,72.64
2023-05-14T12:51:20.118Z,74.42
2023-05-14T12:53:47.228Z,75.09
2023-05-14T12:56:14.177Z,73.89
2023-05-14T12:58:42.975Z,75.04
2023-05-14T13:01:09.927Z,74.46
2023-05-14T13:03:36.834Z,73.37
2023-05-14T13:06:04.026Z,73.73
2023-05-14T13:08:31.045Z,73.20
2023-05-14T13:10:58.019Z,72.73
2023-05-14T13:13:24.995Z,73.47
2023-05-14T13:15:53.475Z,73.75
2023-05-14T13:18:20.423Z,74.44
2023-05-14T13:20:47.794Z,74.99
2023-05-14T13:23:14.900Z,74.64
2023-05-14T13:25:41.819Z,75.02
2023-05-14T13:28:09.126Z,74.92
2023-05-14T13:30:36.065Z,74.41
2023-05-14T13:33:05.130Z,75.20
2023-05-14T13:35:32.119Z,76.69
2023-05-14T13:37:59.141Z,76.51
2023-05-14T13:40:26.149Z,76.17
2023-05-14T13:42:53.064Z,76.51
2023-05-14T13:45:20.187Z,77.30
2023-05-14T13:47:48.819Z,76.64
2023-05-14T13:50:18.128Z,77.54
2023-05-14T13:52:45.010Z,77.59
2023-05-14T13:55:11.947Z,77.46
2023-05-14T13:57:39.841Z,77.46
2023-05-14T14:00:08.167Z,77.09
2023-05-14T14:02:35.067Z,77.39
2023-05-14T14:05:02.127Z,76.94
2023-05-14T14:07:30.480Z,77.19
2023-05-14T14:09:57.385Z,77.02
2023-05-14T14:12:24.461Z,77.17
2023-05-14T14:14:51.429Z,77.53
2023-05-14T14:17:18.378Z,78.00
2023-05-14T14:19:45.315Z,77.71
2023-05-14T14:22:14.051Z,77.13
2023-05-14T14:24:42.348Z,77.50
2023-05-14T14:27:09.266Z,76.78
2023-05-14T14:29:36.788Z,77.19
2023-05-14T14:32:04.649Z,77.17
2023-05-14T14:34:31.634Z,76.65
2023-05-14T14:36:58.583Z,77.20
2023-05-14T14:39:26.572Z,77.75
2023-05-14T14:41:55.506Z,77.26
2023-05-14T14:44:22.389Z,76.80
2023-05-14T14:46:49.338Z,77.85
2023-05-14T14:49:16.256Z,78.04
2023-05-14T14:51:43.521Z,77.69
2023-05-14T14:54:10.438Z,78.25
2023-05-14T14:56:37.537Z,78.69
2023-05-14T14:59:05.839Z,77.16
2023-05-14T15:01:32.900Z,77.62
2023-05-14T15:03:59.956Z,77.93
2023-05-14T15:06:26.964Z,78.91
2023-05-14T15:08:53.875Z,77.84
2023-05-14T15:11:20.935Z,79.14
2023-05-14T15:13:47.897Z,78.46
2023-05-14T15:16:16.198Z,78.88
2023-05-14T15:18:43.132Z,78.22
2023-05-14T15:21:10.034Z,78.81
2023-05-14T15:23:36.972Z,79.06
2023-05-14T15:26:04.672Z,79.18
2023-05-14T15:28:31.593Z,80.24
2023-05-14T15:30:59.208Z,79.97
2023-05-14T15:33:27.576Z,79.87
2023-05-14T15:35:54.547Z,80.95
2023-05-14T15:38:21.474Z,79.62
2023-05-14T15:40:48.936Z,80.12
2023-05-14T15:43:15.843Z,79.19
2023-05-14T15:45:44.312Z,80.45
2023-05-14T15:48:11.054Z,79.65
2023-05-14T15:50:39.419Z,80.18
2023-05-14T15:53:06.322Z,80.29
2023-05-14T15:55:33.258Z,80.26
2023-05-14T15:58:00.295Z,79.29
2023-05-14T16:00:27.302Z,80.48
2023-05-14T16:02:54.433Z,78.96
2023-05-14T16:05:21.634Z,79.37
2023-05-14T16:07:49.922Z,79.51
2023-05-14T16:10:16.839Z,79.54
2023-05-14T16:12:43.740Z,80.03
2023-05-14T16:15:11.524Z,80.40
2023-05-14T16:17:38.744Z,80.70
2023-05-14T16:20:06.522Z,78.56
2023-05-14T16:22:34.774Z,79.61
2023-05-14T16:25:04.738Z,79.76
2023-05-14T16:27:31.829Z,79.67
2023-05-14T16:29:58.733Z,80.11
2023-05-14T16:32:25.870Z,79.97
2023-05-14T16:34:52.952Z,80.11
2023-05-14T16:37:20.561Z,79.91
2023-05-14T16:39:47.792Z,80.62
2023-05-14T16:42:16.128Z,79.79
2023-05-14T16:44:43.067Z,79.50
2023-05-14T16:47:10.113Z,80.28
2023-05-14T16:49:37.710Z,79.98
2023-05-14T16:52:05.482Z,80.21
2023-05-14T16:54:32.396Z,80.21
2023-05-14T16:56:59.319Z,79.88
2023-05-14T16:59:27.616Z,79.73
2023-05-14T17:01:54.714Z,80.41
2023-05-14T17:04:21.887Z,80.64
2023-05-14T17:06:48.765Z,80.21
2023-05-14T17:09:17.016Z,80.23
2023-05-14T17:11:43.929Z,80.38
2023-05-14T17:14:10.997Z,80.07
2023-05-14T17:16:40.565Z,80.61
2023-05-14T17:19:07.588Z,80.65
2023-05-14T17:21:34.655Z,80.38
2023-05-14T17:24:01.513Z,80.19
2023-05-14T17:26:28.414Z,81.16
2023-05-14T17:28:55.628Z,79.83
2023-05-14T17:31:23.313Z,80.16
2023-05-14T17:33:51.657Z,79.91
2023-05-14T17:36:18.511Z,80.39
2023-05-14T17:38:45.534Z,80.07
2023-05-14T17:41:12.462Z,79.93
2023-05-14T17:43:39.338Z,80.42
2023-05-14T17:46:06.933Z,80.16
2023-05-14T17:48:33.815Z,80.68
2023-05-14T17:51:02.139Z,81.49
2023-05-14T17:53:29.053Z,80.65
2023-05-14T17:55:55.969Z,80.92
2023-05-14T17:58:22.961Z,81.27
2023-05-14T18:00:49.921Z,81.48
2023-05-14T18:03:17.552Z,81.21
2023-05-14T18:05:44.544Z,80.98
2023-05-14T18:08:12.878Z,80.98
2023-05-14T18:10:40.045Z,81.81
2023-05-14T18:13:06.950Z,81.97
2023-05-14T18:15:33.992Z,81.09
2023-05-14T18:18:01.079Z,81.57
2023-05-14T18:20:28.106Z,81.78
2023-05-14T18:22:55.034Z,81.29
2023-05-14T18:25:23.577Z,82.47
2023-05-14T18:27:50.713Z,82.35
2023-05-14T18:30:18.003Z,82.31
2023-05-14T18:32:45.144Z,82.89
2023-05-14T18:35:13.258Z,83.14
2023-05-14T18:37:40.960Z,83.53
2023-05-14T18:40:08.967Z,82.81
2023-05-14T18:42:37.262Z,81.97
2023-05-14T18:45:04.873Z,82.04
2023-05-14T18:47:32.252Z,82.31
2023-05-14T18:50:01.736Z,81.06
2023-05-14T18:52:29.417Z,81.71
2023-05-14T18:54:56.680Z,81.49
2023-05-14T18:57:23.618Z,81.52
2023-05-14T18:59:52.014Z,81.40
2023-05-14T19:02:19.012Z,81.04
2023-05-14T19:04:51.616Z,81.78
2023-05-14T19:07:19.643Z,81.37
2023-05-14T19:09:46.548Z,81.75
2023-05-14T19:12:13.775Z,82.16
2023-05-14T19:14:40.699Z,83.03
2023-05-14T19:17:09.029Z,83.18
2023-05-14T19:19:36.012Z,83.01
2023-05-14T19:22:03.010Z,82.64
2023-05-14T19:24:30.326Z,82.60
2023-05-14T19:26:57.340Z,82.18
2023-05-14T19:29:24.986Z,82.72
2023-05-14T19:31:51.945Z,81.49
2023-05-14T19:34:20.548Z,81.76
2023-05-14T19:36:47.261Z,84.49
2023-05-14T19:39:14.198Z,83.57
2023-05-14T19:41:41.093Z,81.45
2023-05-14T19:44:08.088Z,81.45
2023-05-14T19:46:35.032Z,81.30
2023-05-14T19:49:02.012Z,81.78
2023-05-14T19:51:30.290Z,82.54
2023-05-14T19:53:57.201Z,81.60
2023-05-14T19:56:25.727Z,82.22
2023-05-14T19:58:53.961Z,82.42
2023-05-14T20:01:21.095Z,82.44
2023-05-14T20:03:48.073Z,82.82
2023-05-14T20:06:15.045Z,82.82
2023-05-14T20:08:45.219Z,82.91
2023-05-14T20:11:12.308Z,82.84
2023-05-14T20:13:39.263Z,82.58
2023-05-14T20:16:06.726Z,82.69
2023-05-14T20:18:33.742Z,82.16
2023-05-14T20:21:00.756Z,81.99
2023-05-14T20:23:27.686Z,82.42
2023-05-14T20:25:55.929Z,81.98
2023-05-14T20:28:23.161Z,82.65
2023-05-14T20:30:50.113Z,82.93
2023-05-14T20:33:17.154Z,82.96
2023-05-14T20:35:44.236Z,83.20
2023-05-14T20:38:13.423Z,84.05
2023-05-14T20:40:40.756Z,83.16
2023-05-14T20:43:09.021Z,83.16
2023-05-14T20:45:35.935Z,83.77
2023-05-14T20:48:06.137Z,83.09
2023-05-14T20:50:33.086Z,82.82
2023-05-14T20:53:00.044Z,82.80
2023-05-14T20:55:27.287Z,82.67
2023-05-14T20:57:54.335Z,83.07
2023-05-14T21:00:22.785Z,83.00
2023-05-14T21:02:49.834Z,82.32
2023-05-14T21:05:17.348Z,82.67
2023-05-14T21:07:44.409Z,82.92
2023-05-14T21:10:11.630Z,83.30
2023-05-14T21:12:38.554Z,82.55
2023-05-14T21:15:06.328Z,82.74
2023-05-14T21:17:34.659Z,82.57
2023-05-14T21:20:01.408Z,83.08
2023-05-14T21:22:28.305Z,82.11
2023-05-14T21:24:55.688Z,82.58
2023-05-14T21:27:22.672Z,82.68
2023-05-14T21:29:49.529Z,81.86
2023-05-14T21:32:16.560Z,82.39
2023-05-14T21:34:44.911Z,81.97
2023-05-14T21:37:11.867Z,82.88
2023-05-14T21:39:38.929Z,82.24
2023-05-14T21:42:06.366Z,82.75
2023-05-14T21:44:33.250Z,83.28
2023-05-14T21:47:00.237Z,82.46
2023-05-14T21:49:27.157Z,82.65
2023-05-14T21:51:55.661Z,83.73
2023-05-14T21:54:22.536Z,83.66
2023-05-14T21:56:49.608Z,83.77
2023-05-14T21:59:16.555Z,83.40
2023-05-14T22:04:13.370Z,84.18
2023-05-14T22:06:40.414Z,82.59
2023-05-14T22:09:10.769Z,83.91
2023-05-14T22:11:37.758Z,83.01
2023-05-14T22:14:04.789Z,82.75
2023-05-14T22:16:32.172Z,83.05
2023-05-14T22:18:59.196Z,82.66
2023-05-14T22:21:26.154Z,82.67
2023-05-14T22:23:53.124Z,82.01
2023-05-14T22:26:24.567Z,82.57
2023-05-14T22:28:52.569Z,82.20
2023-05-14T22:31:19.597Z,82.76
2023-05-14T22:33:46.661Z,83.39
2023-05-14T22:36:13.657Z,83.26
2023-05-14T22:38:41.304Z,83.67
2023-05-14T22:41:08.244Z,82.77
2023-05-14T22:43:36.541Z,83.63
2023-05-14T22:46:03.789Z,82.99
2023-05-14T22:48:30.766Z,83.53
2023-05-14T22:50:57.649Z,84.10
2023-05-14T22:53:25.324Z,83.27
2023-05-14T22:55:52.448Z,83.72
2023-05-14T22:58:19.410Z,83.52
2023-05-14T23:00:47.665Z,83.09
2023-05-14T23:03:14.586Z,84.43
2023-05-14T23:05:41.524Z,83.55
2023-05-14T23:08:08.415Z,84.15
2023-05-14T23:10:37.986Z,84.38
2023-05-14T23:13:04.937Z,84.14
2023-05-14T23:15:32.625Z,83.61
2023-05-14T23:18:01.173Z,83.80
2023-05-14T23:20:28.181Z,83.39
2023-05-14T23:22:55.033Z,83.40
2023-05-14T23:25:22.069Z,83.52
2023-05-14T23:27:50.061Z,84.05
2023-05-14T23:30:17.074Z,83.67
2023-05-14T23:32:44.048Z,82.85
2023-05-14T23:35:12.337Z,82.99
2023-05-14T23:37:42.642Z,83.16
2023-05-14T23:40:10.256Z,83.48
2023-05-14T23:42:37.101Z,84.29
2023-05-14T23:45:05.285Z,84.11
2023-05-14T23:47:32.248Z,83.74
2023-05-14T23:49:59.184Z,83.25
2023-05-14T23:52:27.565Z,83.09
2023-05-14T23:54:54.468Z,83.43
2023-05-14T23:57:21.419Z,82.98
2023-05-14T23:59:48.392Z,82.87
